PWSweather.com
Personal Weather Stations
Station Observations

SkegnessGB

Lat: 53.147585, Lon: 0.345774

Elevation: 18

Station Type: Fine Offset WH3080

http://www.skegnessweather.info/

High Low Average
Temperature 62.2°F16.8°C 35.4°F1.9°C 49.5°F9.7°C
Dew Point 46.0°F7.8°C 35.4°F1.9°C 42.0°F5.6°C
Winds 11.5 mph 18.5 kmh 0.4 mph 0.6 kmh 4.0 mph SSW6.4 kmh SSW
Wind Gusts 16.0 mph25.7 kmh 1.7 mph2.7 kmh 6.0 mph9.7 kmh
Humidity 100% 52% 78%
Pressure 30.13 in1020.3 mb 29.89 in1012.2 mb -
Precipitation 0.00 in0.0 mm - -
Hour Temp Dew Point Humidity Winds Wind Gusts Pressure Precip Precip Rate Daily Precip Total
12:00 AM 39.0°F3.9°C 37.4°F3.0°C 94% 2.4 mph SSW3.9 kmh SSW 2.5 mph4.0 kmh 29.89 in1012.2 mb 0.00 in0.0 mm 0.00 in0.0 mm 0.00 in0.0 mm
12:10 AM 38.8°F3.8°C 37.3°F2.9°C 94% 2.8 mph S4.5 kmh S 3.4 mph5.5 kmh 29.89 in1012.2 mb 0.00 in0.0 mm 0.00 in0.0 mm 0.00 in0.0 mm
12:20 AM 38.8°F3.8°C 37.3°F2.9°C 94% 3.1 mph S5.0 kmh S 3.4 mph5.5 kmh 29.89 in1012.2 mb 0.00 in0.0 mm 0.00 in0.0 mm 0.00 in0.0 mm
12:30 AM 38.7°F3.7°C 37.4°F3.0°C 95% 2.2 mph S3.5 kmh S 3.4 mph5.5 kmh 29.89 in1012.2 mb 0.00 in0.0 mm 0.00 in0.0 mm 0.00 in0.0 mm
12:40 AM 38.3°F3.5°C 37.0°F2.8°C 95% 2.8 mph SSW4.5 kmh SSW 3.4 mph5.5 kmh 29.89 in1012.2 mb 0.00 in0.0 mm 0.00 in0.0 mm 0.00 in0.0 mm
12:50 AM 38.1°F3.4°C 36.8°F2.7°C 95% 2.9 mph SW4.7 kmh SW 3.4 mph5.5 kmh 29.89 in1012.2 mb 0.00 in0.0 mm 0.00 in0.0 mm 0.00 in0.0 mm
01:00 AM 37.9°F3.3°C 36.9°F2.7°C 96% 2.7 mph SW4.3 kmh SW 3.4 mph5.5 kmh 29.90 in1012.5 mb 0.00 in0.0 mm 0.00 in0.0 mm 0.00 in0.0 mm
01:10 AM 37.9°F3.3°C 36.9°F2.7°C 96% 2.0 mph S3.2 kmh S 3.4 mph5.5 kmh 29.91 in1012.9 mb 0.00 in0.0 mm 0.00 in0.0 mm 0.00 in0.0 mm
01:20 AM 37.8°F3.2°C 37.0°F2.8°C 97% 2.0 mph WSW3.2 kmh WSW 4.2 mph6.8 kmh 29.91 in1012.9 mb 0.00 in0.0 mm 0.00 in0.0 mm 0.00 in0.0 mm
01:30 AM 37.6°F3.1°C 36.8°F2.7°C 97% 1.8 mph SSW2.9 kmh SSW 2.5 mph4.0 kmh 29.91 in1012.9 mb 0.00 in0.0 mm 0.00 in0.0 mm 0.00 in0.0 mm
01:40 AM 37.4°F3.0°C 36.6°F2.6°C 97% 1.6 mph SSW2.6 kmh SSW 2.5 mph4.0 kmh 29.91 in1012.9 mb 0.00 in0.0 mm 0.00 in0.0 mm 0.00 in0.0 mm
01:50 AM 37.4°F3.0°C 36.9°F2.7°C 98% 1.9 mph SW3.1 kmh SW 2.5 mph4.0 kmh 29.92 in1013.2 mb 0.00 in0.0 mm 0.00 in0.0 mm 0.00 in0.0 mm
02:00 AM 37.0°F2.8°C 36.5°F2.5°C 98% 1.9 mph SW3.1 kmh SW 2.5 mph4.0 kmh 29.92 in1013.2 mb 0.00 in0.0 mm 0.00 in0.0 mm 0.00 in0.0 mm
02:10 AM 36.9°F2.7°C 36.6°F2.6°C 99% 2.3 mph SW3.7 kmh SW 2.5 mph4.0 kmh 29.92 in1013.2 mb 0.00 in0.0 mm 0.00 in0.0 mm 0.00 in0.0 mm
02:20 AM 36.7°F2.6°C 36.4°F2.4°C 99% 1.4 mph SSW2.3 kmh SSW 2.5 mph4.0 kmh 29.92 in1013.2 mb 0.00 in0.0 mm 0.00 in0.0 mm 0.00 in0.0 mm
02:30 AM 36.7°F2.6°C 36.7°F2.6°C 100% 1.9 mph SW3.1 kmh SW 2.5 mph4.0 kmh 29.92 in1013.2 mb 0.00 in0.0 mm 0.00 in0.0 mm 0.00 in0.0 mm
02:40 AM 36.5°F2.5°C 36.5°F2.5°C 100% 1.4 mph SW2.3 kmh SW 2.5 mph4.0 kmh 29.93 in1013.5 mb 0.00 in0.0 mm 0.00 in0.0 mm 0.00 in0.0 mm
02:50 AM 36.5°F2.5°C 36.5°F2.5°C 100% 2.0 mph SW3.2 kmh SW 3.4 mph5.5 kmh 29.93 in1013.5 mb 0.00 in0.0 mm 0.00 in0.0 mm 0.00 in0.0 mm
03:00 AM 36.5°F2.5°C 36.5°F2.5°C 100% 2.9 mph SW4.7 kmh SW 3.4 mph5.5 kmh 29.93 in1013.5 mb 0.00 in0.0 mm 0.00 in0.0 mm 0.00 in0.0 mm
03:10 AM 36.1°F2.3°C 36.1°F2.3°C 100% 1.1 mph SW1.8 kmh SW 2.5 mph4.0 kmh 29.93 in1013.5 mb 0.00 in0.0 mm 0.00 in0.0 mm 0.00 in0.0 mm
03:20 AM 36.0°F2.2°C 36.0°F2.2°C 100% 1.0 mph SW1.6 kmh SW 1.7 mph2.7 kmh 29.94 in1013.9 mb 0.00 in0.0 mm 0.00 in0.0 mm 0.00 in0.0 mm
03:30 AM 36.0°F2.2°C 36.0°F2.2°C 100% 2.2 mph SW3.5 kmh SW 3.4 mph5.5 kmh 29.94 in1013.9 mb 0.00 in0.0 mm 0.00 in0.0 mm 0.00 in0.0 mm
03:40 AM 35.8°F2.1°C 35.8°F2.1°C 100% 2.0 mph SSW3.2 kmh SSW 2.5 mph4.0 kmh 29.94 in1013.9 mb 0.00 in0.0 mm 0.00 in0.0 mm 0.00 in0.0 mm
03:50 AM 36.0°F2.2°C 36.0°F2.2°C 100% 2.3 mph SSW3.7 kmh SSW 2.5 mph4.0 kmh 29.94 in1013.9 mb 0.00 in0.0 mm 0.00 in0.0 mm 0.00 in0.0 mm
04:00 AM 36.0°F2.2°C 36.0°F2.2°C 100% 2.5 mph SSW4.0 kmh SSW 4.2 mph6.8 kmh 29.94 in1013.9 mb 0.00 in0.0 mm 0.00 in0.0 mm 0.00 in0.0 mm
04:10 AM 36.1°F2.3°C 36.1°F2.3°C 100% 2.8 mph S4.5 kmh S 3.4 mph5.5 kmh 29.95 in1014.2 mb 0.00 in0.0 mm 0.00 in0.0 mm 0.00 in0.0 mm
04:20 AM 36.0°F2.2°C 36.0°F2.2°C 100% 2.4 mph SW3.9 kmh SW 3.4 mph5.5 kmh 29.95 in1014.2 mb 0.00 in0.0 mm 0.00 in0.0 mm 0.00 in0.0 mm
04:30 AM 36.0°F2.2°C 36.0°F2.2°C 100% 2.5 mph SW4.0 kmh SW 3.4 mph5.5 kmh 29.95 in1014.2 mb 0.00 in0.0 mm 0.00 in0.0 mm 0.00 in0.0 mm
04:40 AM 35.8°F2.1°C 35.8°F2.1°C 100% 2.0 mph SW3.2 kmh SW 2.5 mph4.0 kmh 29.96 in1014.6 mb 0.00 in0.0 mm 0.00 in0.0 mm 0.00 in0.0 mm
04:50 AM 35.4°F1.9°C 35.4°F1.9°C 100% 1.7 mph SW2.7 kmh SW 2.5 mph4.0 kmh 29.97 in1014.9 mb 0.00 in0.0 mm 0.00 in0.0 mm 0.00 in0.0 mm
05:00 AM 35.8°F2.1°C 35.8°F2.1°C 100% 3.0 mph S4.8 kmh S 3.4 mph5.5 kmh 29.97 in1014.9 mb 0.00 in0.0 mm 0.00 in0.0 mm 0.00 in0.0 mm
05:10 AM 36.0°F2.2°C 36.0°F2.2°C 100% 1.3 mph WSW2.1 kmh WSW 2.5 mph4.0 kmh 29.97 in1014.9 mb 0.00 in0.0 mm 0.00 in0.0 mm 0.00 in0.0 mm
05:20 AM 36.3°F2.4°C 36.3°F2.4°C 100% 1.5 mph WSW2.4 kmh WSW 2.5 mph4.0 kmh 29.98 in1015.2 mb 0.00 in0.0 mm 0.00 in0.0 mm 0.00 in0.0 mm
05:30 AM 36.7°F2.6°C 36.7°F2.6°C 100% 1.6 mph SW2.6 kmh SW 3.4 mph5.5 kmh 29.98 in1015.2 mb 0.00 in0.0 mm 0.00 in0.0 mm 0.00 in0.0 mm
05:40 AM 37.2°F2.9°C 37.2°F2.9°C 100% 3.3 mph SW5.3 kmh SW 4.2 mph6.8 kmh 29.98 in1015.2 mb 0.00 in0.0 mm 0.00 in0.0 mm 0.00 in0.0 mm
05:50 AM 37.8°F3.2°C 37.8°F3.2°C 100% 3.3 mph WSW5.3 kmh WSW 4.9 mph7.9 kmh 29.99 in1015.6 mb 0.00 in0.0 mm 0.00 in0.0 mm 0.00 in0.0 mm
06:00 AM 38.3°F3.5°C 38.3°F3.5°C 100% 2.7 mph SW4.3 kmh SW 4.2 mph6.8 kmh 30.00 in1015.9 mb 0.00 in0.0 mm 0.00 in0.0 mm 0.00 in0.0 mm
06:10 AM 39.2°F4.0°C 39.2°F4.0°C 100% 3.9 mph S6.3 kmh S 4.9 mph7.9 kmh 29.99 in1015.6 mb 0.00 in0.0 mm 0.00 in0.0 mm 0.00 in0.0 mm
06:20 AM 39.9°F4.4°C 39.9°F4.4°C 100% 4.0 mph SSW6.4 kmh SSW 4.9 mph7.9 kmh 30.00 in1015.9 mb 0.00 in0.0 mm 0.00 in0.0 mm 0.00 in0.0 mm
06:30 AM 40.8°F4.9°C 40.8°F4.9°C 100% 3.2 mph SSW5.1 kmh SSW 4.9 mph7.9 kmh 30.00 in1015.9 mb 0.00 in0.0 mm 0.00 in0.0 mm 0.00 in0.0 mm
06:40 AM 41.7°F5.4°C 41.7°F5.4°C 100% 3.5 mph SW5.6 kmh SW 4.9 mph7.9 kmh 30.00 in1015.9 mb 0.00 in0.0 mm 0.00 in0.0 mm 0.00 in0.0 mm
06:50 AM 42.4°F5.8°C 42.4°F5.8°C 100% 3.9 mph SW6.3 kmh SW 4.9 mph7.9 kmh 30.01 in1016.3 mb 0.00 in0.0 mm 0.00 in0.0 mm 0.00 in0.0 mm
07:00 AM 43.3°F6.3°C 42.3°F5.7°C 96% 3.4 mph SW5.5 kmh SW 4.2 mph6.8 kmh 30.01 in1016.3 mb 0.00 in0.0 mm 0.00 in0.0 mm 0.00 in0.0 mm
07:10 AM 44.1°F6.7°C 42.7°F5.9°C 95% 4.2 mph WSW6.8 kmh WSW 4.9 mph7.9 kmh 30.01 in1016.3 mb 0.00 in0.0 mm 0.00 in0.0 mm 0.00 in0.0 mm
07:20 AM 45.0°F7.2°C 43.1°F6.2°C 93% 3.8 mph WSW6.1 kmh WSW 4.9 mph7.9 kmh 30.01 in1016.3 mb 0.00 in0.0 mm 0.00 in0.0 mm 0.00 in0.0 mm
07:30 AM 45.7°F7.6°C 43.5°F6.4°C 92% 3.8 mph W6.1 kmh W 4.9 mph7.9 kmh 30.02 in1016.6 mb 0.00 in0.0 mm 0.00 in0.0 mm 0.00 in0.0 mm
07:40 AM 46.0°F7.8°C 43.0°F6.1°C 89% 5.3 mph SSW8.5 kmh SSW 7.6 mph12.2 kmh 30.02 in1016.6 mb 0.00 in0.0 mm 0.00 in0.0 mm 0.00 in0.0 mm
07:50 AM 46.6°F8.1°C 43.2°F6.2°C 88% 4.6 mph SSW7.4 kmh SSW 6.6 mph10.6 kmh 30.03 in1016.9 mb 0.00 in0.0 mm 0.00 in0.0 mm 0.00 in0.0 mm
08:00 AM 46.9°F8.3°C 43.3°F6.3°C 87% 5.8 mph S9.3 kmh S 5.9 mph9.5 kmh 30.03 in1016.9 mb 0.00 in0.0 mm 0.00 in0.0 mm 0.00 in0.0 mm
08:10 AM 47.5°F8.6°C 43.5°F6.4°C 86% 4.6 mph SE7.4 kmh SE 5.9 mph9.5 kmh 30.03 in1016.9 mb 0.00 in0.0 mm 0.00 in0.0 mm 0.00 in0.0 mm
08:20 AM 47.8°F8.8°C 43.5°F6.4°C 85% 5.5 mph SW8.9 kmh SW 6.6 mph10.6 kmh 30.04 in1017.3 mb 0.00 in0.0 mm 0.00 in0.0 mm 0.00 in0.0 mm
08:30 AM 48.2°F9.0°C 43.6°F6.4°C 84% 5.6 mph SW9.0 kmh SW 7.6 mph12.2 kmh 30.04 in1017.3 mb 0.00 in0.0 mm 0.00 in0.0 mm 0.00 in0.0 mm
08:40 AM 49.1°F9.5°C 44.2°F6.8°C 83% 4.9 mph SSW7.9 kmh SSW 5.9 mph9.5 kmh 30.04 in1017.3 mb 0.00 in0.0 mm 0.00 in0.0 mm 0.00 in0.0 mm
08:50 AM 52.7°F11.5°C 46.0°F7.8°C 78% 4.7 mph SSW7.6 kmh SSW 5.9 mph9.5 kmh 30.04 in1017.3 mb 0.00 in0.0 mm 0.00 in0.0 mm 0.00 in0.0 mm
09:00 AM 54.5°F12.5°C 45.3°F7.4°C 71% 5.8 mph W9.3 kmh W 6.6 mph10.6 kmh 30.04 in1017.3 mb 0.00 in0.0 mm 0.00 in0.0 mm 0.00 in0.0 mm
09:10 AM 55.8°F13.2°C 45.7°F7.6°C 69% 6.0 mph S9.7 kmh S 6.6 mph10.6 kmh 30.04 in1017.3 mb 0.00 in0.0 mm 0.00 in0.0 mm 0.00 in0.0 mm
09:20 AM 56.1°F13.4°C 45.3°F7.4°C 67% 6.4 mph S10.3 kmh S 7.6 mph12.2 kmh 30.04 in1017.3 mb 0.00 in0.0 mm 0.00 in0.0 mm 0.00 in0.0 mm
09:30 AM 56.1°F13.4°C 44.5°F6.9°C 65% 7.3 mph SW11.7 kmh SW 6.6 mph10.6 kmh 30.05 in1017.6 mb 0.00 in0.0 mm 0.00 in0.0 mm 0.00 in0.0 mm
09:40 AM 57.4°F14.1°C 44.9°F7.2°C 63% 6.5 mph WSW10.5 kmh WSW 6.6 mph10.6 kmh 30.05 in1017.6 mb 0.00 in0.0 mm 0.00 in0.0 mm 0.00 in0.0 mm
09:50 AM 57.0°F13.9°C 44.5°F6.9°C 63% 7.8 mph SSW12.6 kmh SSW 9.1 mph14.6 kmh 30.04 in1017.3 mb 0.00 in0.0 mm 0.00 in0.0 mm 0.00 in0.0 mm
10:10 AM 57.4°F14.1°C 44.9°F7.2°C 63% 5.8 mph WSW9.3 kmh WSW 5.9 mph9.5 kmh 30.06 in1017.9 mb 0.00 in0.0 mm 0.00 in0.0 mm 0.00 in0.0 mm
10:20 AM 58.3°F14.6°C 44.4°F6.9°C 60% 4.6 mph WSW7.4 kmh WSW 7.6 mph12.2 kmh 30.06 in1017.9 mb 0.00 in0.0 mm 0.00 in0.0 mm 0.00 in0.0 mm
10:30 AM 59.5°F15.3°C 45.6°F7.6°C 60% 5.5 mph SW8.9 kmh SW 7.6 mph12.2 kmh 30.06 in1017.9 mb 0.00 in0.0 mm 0.00 in0.0 mm 0.00 in0.0 mm
10:40 AM 59.5°F15.3°C 44.7°F7.1°C 58% 6.1 mph SW9.8 kmh SW 8.4 mph13.5 kmh 30.07 in1018.3 mb 0.00 in0.0 mm 0.00 in0.0 mm 0.00 in0.0 mm
10:50 AM 59.5°F15.3°C 44.3°F6.8°C 57% 5.8 mph W9.3 kmh W 6.6 mph10.6 kmh 30.07 in1018.3 mb 0.00 in0.0 mm 0.00 in0.0 mm 0.00 in0.0 mm
11:00 AM 58.5°F14.7°C 43.7°F6.5°C 58% 6.9 mph SE11.1 kmh SE 9.1 mph14.6 kmh 30.07 in1018.3 mb 0.00 in0.0 mm 0.00 in0.0 mm 0.00 in0.0 mm
11:10 AM 57.7°F14.3°C 43.5°F6.4°C 59% 7.1 mph W11.4 kmh W 10.1 mph16.3 kmh 30.07 in1018.3 mb 0.00 in0.0 mm 0.00 in0.0 mm 0.00 in0.0 mm
11:20 AM 56.5°F13.6°C 43.2°F6.2°C 61% 6.8 mph SW10.9 kmh SW 9.1 mph14.6 kmh 30.07 in1018.3 mb 0.00 in0.0 mm 0.00 in0.0 mm 0.00 in0.0 mm
11:30 AM 56.7°F13.7°C 43.4°F6.3°C 61% 5.9 mph SW9.5 kmh SW 7.6 mph12.2 kmh 30.07 in1018.3 mb 0.00 in0.0 mm 0.00 in0.0 mm 0.00 in0.0 mm
11:40 AM 56.7°F13.7°C 43.8°F6.6°C 62% 6.5 mph S10.5 kmh S 11.8 mph19.0 kmh 30.07 in1018.3 mb 0.00 in0.0 mm 0.00 in0.0 mm 0.00 in0.0 mm
11:50 AM 56.5°F13.6°C 43.6°F6.4°C 62% 5.9 mph SSW9.5 kmh SSW 11.8 mph19.0 kmh 30.07 in1018.3 mb 0.00 in0.0 mm 0.00 in0.0 mm 0.00 in0.0 mm
12:00 PM 57.4°F14.1°C 43.6°F6.4°C 60% 7.3 mph S11.7 kmh S 9.1 mph14.6 kmh 30.07 in1018.3 mb 0.00 in0.0 mm 0.00 in0.0 mm 0.00 in0.0 mm
12:10 PM 57.2°F14.0°C 42.1°F5.6°C 57% 7.1 mph W11.4 kmh W 10.8 mph17.4 kmh 30.07 in1018.3 mb 0.00 in0.0 mm 0.00 in0.0 mm 0.00 in0.0 mm
12:20 PM 58.3°F14.6°C 43.6°F6.4°C 58% 5.9 mph WNW9.5 kmh WNW 7.6 mph12.2 kmh 30.07 in1018.3 mb 0.00 in0.0 mm 0.00 in0.0 mm 0.00 in0.0 mm
12:30 PM 58.5°F14.7°C 43.7°F6.5°C 58% 8.3 mph WSW13.4 kmh WSW 10.8 mph17.4 kmh 30.07 in1018.3 mb 0.00 in0.0 mm 0.00 in0.0 mm 0.00 in0.0 mm
12:40 PM 60.3°F15.7°C 44.0°F6.7°C 55% 8.4 mph S13.5 kmh S 10.1 mph16.3 kmh 30.08 in1018.6 mb 0.00 in0.0 mm 0.00 in0.0 mm 0.00 in0.0 mm
12:50 PM 61.2°F16.2°C 43.9°F6.6°C 53% 10.6 mph S17.1 kmh S 11.8 mph19.0 kmh 30.07 in1018.3 mb 0.00 in0.0 mm 0.00 in0.0 mm 0.00 in0.0 mm
01:00 PM 60.8°F16.0°C 43.1°F6.2°C 52% 11.5 mph SSW18.5 kmh SSW 15.0 mph24.1 kmh 30.08 in1018.6 mb 0.00 in0.0 mm 0.00 in0.0 mm 0.00 in0.0 mm
01:10 PM 60.3°F15.7°C 44.0°F6.7°C 55% 10.8 mph SW17.4 kmh SW 16.0 mph25.7 kmh 30.07 in1018.3 mb 0.00 in0.0 mm 0.00 in0.0 mm 0.00 in0.0 mm
01:20 PM 59.7°F15.4°C 43.0°F6.1°C 54% 7.9 mph SSW12.7 kmh SSW 10.8 mph17.4 kmh 30.07 in1018.3 mb 0.00 in0.0 mm 0.00 in0.0 mm 0.00 in0.0 mm
01:30 PM 61.0°F16.1°C 43.2°F6.2°C 52% 7.7 mph WSW12.4 kmh WSW 10.1 mph16.3 kmh 30.07 in1018.3 mb 0.00 in0.0 mm 0.00 in0.0 mm 0.00 in0.0 mm
01:40 PM 60.3°F15.7°C 44.5°F6.9°C 56% 9.1 mph SW14.6 kmh SW 12.5 mph20.1 kmh 30.07 in1018.3 mb 0.00 in0.0 mm 0.00 in0.0 mm 0.00 in0.0 mm
01:50 PM 60.3°F15.7°C 44.0°F6.7°C 55% 7.8 mph S12.6 kmh S 10.1 mph16.3 kmh 30.07 in1018.3 mb 0.00 in0.0 mm 0.00 in0.0 mm 0.00 in0.0 mm
02:00 PM 61.3°F16.3°C 43.6°F6.4°C 52% 8.1 mph WSW13.0 kmh WSW 10.1 mph16.3 kmh 30.07 in1018.3 mb 0.00 in0.0 mm 0.00 in0.0 mm 0.00 in0.0 mm
02:10 PM 60.1°F15.6°C 43.4°F6.3°C 54% 10.6 mph SW17.1 kmh SW 10.8 mph17.4 kmh 30.07 in1018.3 mb 0.00 in0.0 mm 0.00 in0.0 mm 0.00 in0.0 mm
02:20 PM 58.8°F14.9°C 43.1°F6.2°C 56% 6.2 mph SSW10.0 kmh SSW 10.1 mph16.3 kmh 30.07 in1018.3 mb 0.00 in0.0 mm 0.00 in0.0 mm 0.00 in0.0 mm
02:30 PM 58.6°F14.8°C 43.4°F6.3°C 57% 7.1 mph S11.4 kmh S 10.1 mph16.3 kmh 30.07 in1018.3 mb 0.00 in0.0 mm 0.00 in0.0 mm 0.00 in0.0 mm
02:40 PM 59.7°F15.4°C 43.5°F6.4°C 55% 7.3 mph SSW11.7 kmh SSW 10.1 mph16.3 kmh 30.07 in1018.3 mb 0.00 in0.0 mm 0.00 in0.0 mm 0.00 in0.0 mm
02:50 PM 61.2°F16.2°C 43.4°F6.3°C 52% 7.5 mph S12.1 kmh S 10.1 mph16.3 kmh 30.07 in1018.3 mb 0.00 in0.0 mm 0.00 in0.0 mm 0.00 in0.0 mm
03:00 PM 61.5°F16.4°C 43.7°F6.5°C 52% 7.6 mph SSW12.2 kmh SSW 9.1 mph14.6 kmh 30.07 in1018.3 mb 0.00 in0.0 mm 0.00 in0.0 mm 0.00 in0.0 mm
03:10 PM 61.0°F16.1°C 43.2°F6.2°C 52% 7.1 mph SW11.4 kmh SW 9.1 mph14.6 kmh 30.07 in1018.3 mb 0.00 in0.0 mm 0.00 in0.0 mm 0.00 in0.0 mm
03:20 PM 62.2°F16.8°C 44.4°F6.9°C 52% 6.5 mph SW10.5 kmh SW 9.1 mph14.6 kmh 30.07 in1018.3 mb 0.00 in0.0 mm 0.00 in0.0 mm 0.00 in0.0 mm
03:30 PM 61.3°F16.3°C 43.6°F6.4°C 52% 8.0 mph S12.9 kmh S 10.8 mph17.4 kmh 30.07 in1018.3 mb 0.00 in0.0 mm 0.00 in0.0 mm 0.00 in0.0 mm
03:40 PM 61.0°F16.1°C 43.2°F6.2°C 52% 6.8 mph S10.9 kmh S 7.6 mph12.2 kmh 30.07 in1018.3 mb 0.00 in0.0 mm 0.00 in0.0 mm 0.00 in0.0 mm
03:50 PM 60.3°F15.7°C 44.0°F6.7°C 55% 4.7 mph SW7.6 kmh SW 6.6 mph10.6 kmh 30.07 in1018.3 mb 0.00 in0.0 mm 0.00 in0.0 mm 0.00 in0.0 mm
04:00 PM 59.4°F15.2°C 43.2°F6.2°C 55% 6.7 mph SSW10.8 kmh SSW 6.6 mph10.6 kmh 30.08 in1018.6 mb 0.00 in0.0 mm 0.00 in0.0 mm 0.00 in0.0 mm
04:10 PM 59.4°F15.2°C 43.7°F6.5°C 56% 6.3 mph WSW10.1 kmh WSW 6.6 mph10.6 kmh 30.07 in1018.3 mb 0.00 in0.0 mm 0.00 in0.0 mm 0.00 in0.0 mm
04:20 PM 58.6°F14.8°C 43.4°F6.3°C 57% 5.9 mph SW9.5 kmh SW 6.6 mph10.6 kmh 30.07 in1018.3 mb 0.00 in0.0 mm 0.00 in0.0 mm 0.00 in0.0 mm
04:30 PM 58.1°F14.5°C 43.8°F6.6°C 59% 5.7 mph SW9.2 kmh SW 10.8 mph17.4 kmh 30.08 in1018.6 mb 0.00 in0.0 mm 0.00 in0.0 mm 0.00 in0.0 mm
04:40 PM 57.4°F14.1°C 43.2°F6.2°C 59% 6.5 mph WSW10.5 kmh WSW 7.6 mph12.2 kmh 30.08 in1018.6 mb 0.00 in0.0 mm 0.00 in0.0 mm 0.00 in0.0 mm
04:50 PM 57.2°F14.0°C 44.3°F6.8°C 62% 3.0 mph W4.8 kmh W 4.9 mph7.9 kmh 30.08 in1018.6 mb 0.00 in0.0 mm 0.00 in0.0 mm 0.00 in0.0 mm
05:00 PM 57.0°F13.9°C 44.1°F6.7°C 62% 3.9 mph S6.3 kmh S 5.9 mph9.5 kmh 30.08 in1018.6 mb 0.00 in0.0 mm 0.00 in0.0 mm 0.00 in0.0 mm
05:10 PM 57.0°F13.9°C 44.1°F6.7°C 62% 4.4 mph SSW7.1 kmh SSW 4.9 mph7.9 kmh 30.09 in1019.0 mb 0.00 in0.0 mm 0.00 in0.0 mm 0.00 in0.0 mm
05:20 PM 57.2°F14.0°C 44.3°F6.8°C 62% 3.9 mph SW6.3 kmh SW 5.9 mph9.5 kmh 30.09 in1019.0 mb 0.00 in0.0 mm 0.00 in0.0 mm 0.00 in0.0 mm
05:30 PM 57.0°F13.9°C 44.5°F6.9°C 63% 3.6 mph WSW5.8 kmh WSW 4.9 mph7.9 kmh 30.09 in1019.0 mb 0.00 in0.0 mm 0.00 in0.0 mm 0.00 in0.0 mm
05:40 PM 56.7°F13.7°C 44.6°F7.0°C 64% 3.9 mph WSW6.3 kmh WSW 4.9 mph7.9 kmh 30.09 in1019.0 mb 0.00 in0.0 mm 0.00 in0.0 mm 0.00 in0.0 mm
05:50 PM 56.5°F13.6°C 44.4°F6.9°C 64% 4.1 mph SSW6.6 kmh SSW 5.9 mph9.5 kmh 30.09 in1019.0 mb 0.00 in0.0 mm 0.00 in0.0 mm 0.00 in0.0 mm
06:00 PM 56.3°F13.5°C 44.3°F6.8°C 64% 3.8 mph SW6.1 kmh SW 4.9 mph7.9 kmh 30.09 in1019.0 mb 0.00 in0.0 mm 0.00 in0.0 mm 0.00 in0.0 mm
06:10 PM 56.3°F13.5°C 44.3°F6.8°C 64% 3.8 mph NNE6.1 kmh NNE 4.2 mph6.8 kmh 30.09 in1019.0 mb 0.00 in0.0 mm 0.00 in0.0 mm 0.00 in0.0 mm
06:20 PM 55.9°F13.3°C 43.9°F6.6°C 64% 3.8 mph S6.1 kmh S 6.6 mph10.6 kmh 30.09 in1019.0 mb 0.00 in0.0 mm 0.00 in0.0 mm 0.00 in0.0 mm
06:30 PM 55.8°F13.2°C 44.2°F6.8°C 65% 2.2 mph WSW3.5 kmh WSW 3.4 mph5.5 kmh 30.10 in1019.3 mb 0.00 in0.0 mm 0.00 in0.0 mm 0.00 in0.0 mm
06:40 PM 55.4°F13.0°C 44.2°F6.8°C 66% 3.1 mph S5.0 kmh S 4.2 mph6.8 kmh 30.10 in1019.3 mb 0.00 in0.0 mm 0.00 in0.0 mm 0.00 in0.0 mm
06:50 PM 54.9°F12.7°C 44.5°F6.9°C 68% 3.6 mph SSE5.8 kmh SSE 4.9 mph7.9 kmh 30.10 in1019.3 mb 0.00 in0.0 mm 0.00 in0.0 mm 0.00 in0.0 mm
07:00 PM 54.5°F12.5°C 44.5°F6.9°C 69% 3.6 mph SE5.8 kmh SE 4.9 mph7.9 kmh 30.10 in1019.3 mb 0.00 in0.0 mm 0.00 in0.0 mm 0.00 in0.0 mm
07:10 PM 54.1°F12.3°C 44.6°F7.0°C 70% 4.4 mph S7.1 kmh S 4.9 mph7.9 kmh 30.11 in1019.6 mb 0.00 in0.0 mm 0.00 in0.0 mm 0.00 in0.0 mm
07:20 PM 53.8°F12.1°C 44.6°F7.0°C 71% 5.2 mph S8.4 kmh S 5.9 mph9.5 kmh 30.11 in1019.6 mb 0.00 in0.0 mm 0.00 in0.0 mm 0.00 in0.0 mm
07:30 PM 53.2°F11.8°C 44.1°F6.7°C 71% 5.7 mph S9.2 kmh S 6.6 mph10.6 kmh 30.11 in1019.6 mb 0.00 in0.0 mm 0.00 in0.0 mm 0.00 in0.0 mm
07:40 PM 53.1°F11.7°C 43.9°F6.6°C 71% 4.3 mph SSE6.9 kmh SSE 5.9 mph9.5 kmh 30.11 in1019.6 mb 0.00 in0.0 mm 0.00 in0.0 mm 0.00 in0.0 mm
07:50 PM 52.9°F11.6°C 44.1°F6.7°C 72% 2.1 mph E3.4 kmh E 3.4 mph5.5 kmh 30.12 in1020.0 mb 0.00 in0.0 mm 0.00 in0.0 mm 0.00 in0.0 mm
08:00 PM 52.0°F11.1°C 43.9°F6.6°C 74% 0.4 mph S0.6 kmh S 1.7 mph2.7 kmh 30.11 in1019.6 mb 0.00 in0.0 mm 0.00 in0.0 mm 0.00 in0.0 mm
08:10 PM 51.3°F10.7°C 45.3°F7.4°C 80% 0.4 mph WSW0.6 kmh WSW 1.7 mph2.7 kmh 30.12 in1020.0 mb 0.00 in0.0 mm 0.00 in0.0 mm 0.00 in0.0 mm
08:20 PM 50.5°F10.3°C 45.2°F7.3°C 82% 1.3 mph SE2.1 kmh SE 2.5 mph4.0 kmh 30.11 in1019.6 mb 0.00 in0.0 mm 0.00 in0.0 mm 0.00 in0.0 mm
08:30 PM 50.2°F10.1°C 44.9°F7.2°C 82% 1.3 mph SE2.1 kmh SE 2.5 mph4.0 kmh 30.12 in1020.0 mb 0.00 in0.0 mm 0.00 in0.0 mm 0.00 in0.0 mm
08:40 PM 49.8°F9.9°C 44.5°F6.9°C 82% 2.6 mph SSE4.2 kmh SSE 4.2 mph6.8 kmh 30.12 in1020.0 mb 0.00 in0.0 mm 0.00 in0.0 mm 0.00 in0.0 mm
08:50 PM 49.6°F9.8°C 44.7°F7.1°C 83% 1.9 mph SE3.1 kmh SE 3.4 mph5.5 kmh 30.11 in1019.6 mb 0.00 in0.0 mm 0.00 in0.0 mm 0.00 in0.0 mm
09:00 PM 49.3°F9.6°C 44.3°F6.8°C 83% 2.2 mph SE3.5 kmh SE 4.9 mph7.9 kmh 30.12 in1020.0 mb 0.00 in0.0 mm 0.00 in0.0 mm 0.00 in0.0 mm
09:10 PM 49.1°F9.5°C 44.2°F6.8°C 83% 2.2 mph SSW3.5 kmh SSW 4.9 mph7.9 kmh 30.12 in1020.0 mb 0.00 in0.0 mm 0.00 in0.0 mm 0.00 in0.0 mm
09:20 PM 48.7°F9.3°C 43.8°F6.6°C 83% 1.8 mph SE2.9 kmh SE 3.4 mph5.5 kmh 30.12 in1020.0 mb 0.00 in0.0 mm 0.00 in0.0 mm 0.00 in0.0 mm
09:30 PM 48.7°F9.3°C 44.1°F6.7°C 84% 3.0 mph SE4.8 kmh SE 4.9 mph7.9 kmh 30.12 in1020.0 mb 0.00 in0.0 mm 0.00 in0.0 mm 0.00 in0.0 mm
09:40 PM 48.9°F9.4°C 44.3°F6.8°C 84% 3.8 mph SSE6.1 kmh SSE 4.9 mph7.9 kmh 30.12 in1020.0 mb 0.00 in0.0 mm 0.00 in0.0 mm 0.00 in0.0 mm
09:50 PM 49.1°F9.5°C 44.5°F6.9°C 84% 5.9 mph SSE9.5 kmh SSE 6.6 mph10.6 kmh 30.12 in1020.0 mb 0.00 in0.0 mm 0.00 in0.0 mm 0.00 in0.0 mm
10:00 PM 49.1°F9.5°C 44.5°F6.9°C 84% 6.0 mph S9.7 kmh S 6.6 mph10.6 kmh 30.12 in1020.0 mb 0.00 in0.0 mm 0.00 in0.0 mm 0.00 in0.0 mm
10:10 PM 49.1°F9.5°C 44.5°F6.9°C 84% 7.0 mph SE11.3 kmh SE 7.6 mph12.2 kmh 30.12 in1020.0 mb 0.00 in0.0 mm 0.00 in0.0 mm 0.00 in0.0 mm
10:20 PM 49.3°F9.6°C 44.6°F7.0°C 84% 5.6 mph SSE9.0 kmh SSE 5.9 mph9.5 kmh 30.12 in1020.0 mb 0.00 in0.0 mm 0.00 in0.0 mm 0.00 in0.0 mm
10:30 PM 49.1°F9.5°C 44.5°F6.9°C 84% 6.1 mph S9.8 kmh S 6.6 mph10.6 kmh 30.12 in1020.0 mb 0.00 in0.0 mm 0.00 in0.0 mm 0.00 in0.0 mm
10:40 PM 49.1°F9.5°C 44.5°F6.9°C 84% 5.4 mph SSE8.7 kmh SSE 5.9 mph9.5 kmh 30.12 in1020.0 mb 0.00 in0.0 mm 0.00 in0.0 mm 0.00 in0.0 mm
10:50 PM 48.9°F9.4°C 44.6°F7.0°C 85% 4.2 mph S6.8 kmh S 5.9 mph9.5 kmh 30.12 in1020.0 mb 0.00 in0.0 mm 0.00 in0.0 mm 0.00 in0.0 mm
11:00 PM 48.7°F9.3°C 44.4°F6.9°C 85% 2.8 mph SSW4.5 kmh SSW 3.4 mph5.5 kmh 30.12 in1020.0 mb 0.00 in0.0 mm 0.00 in0.0 mm 0.00 in0.0 mm
11:10 PM 48.2°F9.0°C 44.2°F6.8°C 86% 2.7 mph S4.3 kmh S 3.4 mph5.5 kmh 30.12 in1020.0 mb 0.00 in0.0 mm 0.00 in0.0 mm 0.00 in0.0 mm
11:20 PM 47.7°F8.7°C 44.3°F6.8°C 88% 3.0 mph SSE4.8 kmh SSE 3.4 mph5.5 kmh 30.12 in1020.0 mb 0.00 in0.0 mm 0.00 in0.0 mm 0.00 in0.0 mm
11:30 PM 47.5°F8.6°C 44.7°F7.1°C 90% 3.1 mph SE5.0 kmh SE 3.4 mph5.5 kmh 30.13 in1020.3 mb 0.00 in0.0 mm 0.00 in0.0 mm 0.00 in0.0 mm
11:40 PM 47.5°F8.6°C 44.7°F7.1°C 90% 3.9 mph SSE6.3 kmh SSE 4.9 mph7.9 kmh 30.12 in1020.0 mb 0.00 in0.0 mm 0.00 in0.0 mm 0.00 in0.0 mm
11:50 PM 47.5°F8.6°C 44.7°F7.1°C 90% 4.8 mph S7.7 kmh S 4.9 mph7.9 kmh 30.12 in1020.0 mb 0.00 in0.0 mm 0.00 in0.0 mm 0.00 in0.0 mm